ADDS TAF Board (Experimental) INFO Settings
IDs: Format: Expanded Condensed

KMDW - Chicago/Midway Intl, IL, US

Issued at 1741 UTC 30 Sep 2016
Updated at 1836 UTC 30 Sep 2016
Time1753Z 30/19Z 30/20Z 30/21Z 30/22Z 30/23Z 01/00Z 01/01Z 01/02Z 01/03Z 01/04Z 01/05Z 01/06Z 01/07Z
Type OBS PRVL PRVL PRVL PRVL PRVL
  [TEMP]  
PRVL
  [TEMP]  
PRVL
  [TEMP]  
PRVL
  [TEMP]  
PRVL PRVL PRVL PRVL PRVL
VIS 10 >6 >6 >6 >6 >6
  [5]  
>6
  [5]  
>6
  [5]  
>6
  [5]  
4 4 4 4 4
CIG 16 14 14 14 17 17
  [10]  
17
  [10]  
17
  [10]  
17
  [10]  
8 8 8 8 8
Cover OVC BKN BKN BKN BKN BKN
  [OVC]  
BKN
  [OVC]  
BKN
  [OVC]  
BKN
  [OVC]  
OVC OVC OVC OVC OVC
FltCat MVFR MVFR MVFR MVFR MVFR MVFR
  [MVFR]  
MVFR
  [MVFR]  
MVFR
  [MVFR]  
MVFR
  [MVFR]  
IFR IFR IFR IFR IFR
WX -- -- -- -- VCSH VCSH
  [-SHRA]  
VCSH
  [-SHRA]  
VCSH
  [-SHRA]  
VCSH
  [-SHRA]  
-SHRA -SHDZ BR -SHRA -SHDZ BR -SHRA -SHDZ BR -SHRA -SHDZ BR -SHRA -SHDZ BR
WDir 40 50 50 50 40 40
[40]
40
[40]
40
[40]
40
[40]
50 50 50 50 50
WSpd 16 14 14 14 12 12
  [12]  
12
  [12]  
12
  [12]  
12
  [12]  
11 11 11 11 11
WGst -- 22 22 22 -- --
  [--]  
--
  [--]  
--
  [--]  
--
  [--]  
-- -- -- -- --
R04/22
XWnd 1 -2 -2 -2 1 1 1 1 1 -1 -1 -1 -1 -1
XGst -- -3 -3 -3 -- 0 0 0 0 -- -- -- -- --
HWnd 16 14 14 14 12 12 12 12 12 11 11 11 11 11
HGst -- 22 22 22 -- 0 0 0 0 -- -- -- -- --
R13/31
XWnd 16 14 14 14 12 12 12 12 12 11 11 11 11 11
XGst -- 22 22 22 -- 0 0 0 0 -- -- -- -- --
HWnd -1 1 1 1 -1 -1 -1 -1 -1 1 1 1 1 1
HGst -- 2 2 2 -- 0 0 0 0 -- -- -- -- --

Raw TAF
KMDW 301741Z 3018/0118 05014G22KT P6SM BKN014 BKN020
  FM302200 04012KT P6SM VCSH BKN017
  TEMPO 3023/0103 5SM -SHRA OVC010
  FM010300 05011KT 4SM -SHRADZ BR BKN008 OVC012
  FM010800 04008KT 3SM -DZ BR OVC006
  FM011400 04010KT 5SM -SHRA BR OVC008
  FM011700 03008KT 6SM -SHRA BR OVC012


Raw METAR
KMDW 301753Z 04016KT 10SM BKN016 OVC021 18/15 A3011 RMK AO2 SLP191 60009 T01830150 10189 20172 58009
KMDW 301726Z 07015KT 10SM BKN016 OVC021 19/15 A3011 RMK AO2 T01890150 $
KMDW 301653Z 06016G22KT 10SM BKN012 OVC019 18/16 A3012 RMK AO2 RAE37 SLP197 P0000 T01830156 $
KMDW 301604Z 04011KT 3SM -RA BR SCT008 OVC012 17/16 A3013 RMK AO2 P0000 T01720156 $
KMDW 301553Z 04014G20KT 1 1/2SM -RA BR SCT008 OVC012 17/15 A3013 RMK AO2 SLP200 P0002 T01720150 $
KMDW 301550Z 05015G20KT 1 1/2SM -RA BR SCT008 OVC012 17/15 A3013 RMK AO2 P0001 $

METAR Board
Radar Display
Forecast Discussion

TAF Board Legend

Potential Impact
Threat None Slight Moderate High
Visibility (sm) ≥5.1 5.1>X≥3 3>X≥1 <1
Ceiling (100 ft) ≥30.1 30.1>X≥10 10>X≥5 <5
Wind Speed (kt) <10 10≤X<20 20≤X<30 ≥30
Wind Gust (kt) <15 15≤X<25 25≤X<35 ≥35
Weather No Wx Reported VCTS,-TS,-FZRA,SN TS,FZRA +TS,+FZRA,+SN